createdAt,value
2022-12-03T00:01:47.680Z,4.88
2022-12-03T00:04:14.391Z,4.85
2022-12-03T00:06:41.061Z,5.02
2022-12-03T00:09:07.947Z,5.70
2022-12-03T00:11:34.694Z,5.87
2022-12-03T00:14:01.307Z,5.85
2022-12-03T00:16:28.243Z,4.81
2022-12-03T00:18:54.993Z,4.76
2022-12-03T00:21:24.368Z,4.81
2022-12-03T00:23:51.403Z,5.19
2022-12-03T00:26:18.047Z,4.18
2022-12-03T00:28:44.683Z,3.68
2022-12-03T00:31:11.348Z,3.87
2022-12-03T00:33:37.988Z,3.47
2022-12-03T00:36:04.923Z,4.00
2022-12-03T00:38:31.535Z,3.52
2022-12-03T00:40:58.162Z,4.00
2022-12-03T00:43:24.827Z,4.66
2022-12-03T00:45:51.497Z,5.15
2022-12-03T00:48:18.188Z,4.90
2022-12-03T00:50:44.790Z,5.13
2022-12-03T00:53:11.394Z,4.99
2022-12-03T00:55:38.092Z,4.88
2022-12-03T00:58:04.720Z,5.30
2022-12-03T01:00:31.343Z,4.86
2022-12-03T01:02:57.954Z,4.54
2022-12-03T01:05:24.591Z,3.53
2022-12-03T01:07:51.302Z,3.11
2022-12-03T01:10:18.018Z,3.44
2022-12-03T01:12:44.755Z,3.63
2022-12-03T01:15:12.342Z,3.47
2022-12-03T01:17:39.417Z,3.55
2022-12-03T01:20:08.049Z,3.79
2022-12-03T01:22:35.363Z,3.71
2022-12-03T01:25:02.059Z,4.09
2022-12-03T01:27:28.699Z,3.97
2022-12-03T01:29:55.418Z,4.54
2022-12-03T01:32:22.121Z,3.83
2022-12-03T01:34:52.007Z,3.32
2022-12-03T01:37:21.735Z,3.21
2022-12-03T01:39:48.393Z,2.76
2022-12-03T01:42:25.696Z,2.42
2022-12-03T01:44:56.619Z,2.48
2022-12-03T01:47:29.891Z,2.11
2022-12-03T01:50:02.632Z,2.25
2022-12-03T01:52:34.218Z,2.01
2022-12-03T01:55:07.042Z,1.97
2022-12-03T01:57:41.223Z,1.78
2022-12-03T02:00:16.149Z,1.89
2022-12-03T02:02:43.530Z,1.77
2022-12-03T02:05:18.900Z,1.92
2022-12-03T02:07:46.156Z,1.97
2022-12-03T02:10:14.932Z,1.94
2022-12-03T02:13:05.686Z,1.73
2022-12-03T02:15:32.493Z,1.76
2022-12-03T02:18:00.146Z,1.85
2022-12-03T02:20:27.300Z,1.73
2022-12-03T02:23:04.886Z,1.68
2022-12-03T02:25:35.527Z,1.54
2022-12-03T02:28:04.679Z,1.58
2022-12-03T02:30:32.366Z,1.62
2022-12-03T02:33:00.113Z,1.55
2022-12-03T02:35:31.771Z,1.52
2022-12-03T02:38:19.792Z,1.67
2022-12-03T02:40:51.804Z,1.63
2022-12-03T02:43:21.694Z,1.47
2022-12-03T02:45:53.508Z,1.33
2022-12-03T02:48:31.899Z,1.49
2022-12-03T02:51:04.135Z,1.31
2022-12-03T02:53:41.170Z,1.23
2022-12-03T02:56:09.419Z,1.16
2022-12-03T02:58:37.438Z,1.17
2022-12-03T03:01:05.342Z,1.12
2022-12-03T03:03:33.344Z,1.16
2022-12-03T03:06:05.731Z,1.14
2022-12-03T03:08:33.658Z,1.11
2022-12-03T03:11:02.405Z,0.99
2022-12-03T03:13:31.813Z,0.93
2022-12-03T03:15:59.221Z,1.05
2022-12-03T03:18:26.015Z,0.99
2022-12-03T03:20:53.249Z,0.85
2022-12-03T03:23:23.467Z,0.78
2022-12-03T03:26:01.423Z,0.95
2022-12-03T03:28:30.558Z,0.87
2022-12-03T03:31:02.387Z,0.91
2022-12-03T03:33:30.132Z,0.79
2022-12-03T03:35:57.568Z,0.86
2022-12-03T03:38:24.343Z,0.84
2022-12-03T03:40:53.418Z,0.90
2022-12-03T03:43:24.960Z,0.82
2022-12-03T03:45:53.756Z,0.83
2022-12-03T03:48:21.934Z,0.88
2022-12-03T03:50:50.829Z,0.83
2022-12-03T03:53:19.621Z,0.89
2022-12-03T03:55:47.192Z,0.90
2022-12-03T03:58:14.375Z,0.94
2022-12-03T04:00:44.563Z,0.97
2022-12-03T04:03:11.740Z,0.82
2022-12-03T04:05:39.019Z,0.98
2022-12-03T04:08:05.893Z,0.99
2022-12-03T04:10:32.669Z,0.80
2022-12-03T04:13:19.304Z,0.96
2022-12-03T04:16:04.239Z,0.95
2022-12-03T04:18:30.968Z,0.90
2022-12-03T04:20:57.627Z,0.77
2022-12-03T04:23:30.568Z,0.82
2022-12-03T04:25:57.644Z,0.86
2022-12-03T04:28:24.342Z,0.86
2022-12-03T04:30:51.029Z,0.98
2022-12-03T04:33:17.776Z,0.87
2022-12-03T04:35:44.618Z,0.93
2022-12-03T04:38:14.006Z,0.87
2022-12-03T04:40:41.229Z,0.97
2022-12-03T04:43:08.064Z,1.13
2022-12-03T04:45:34.786Z,0.89
2022-12-03T04:48:01.646Z,1.01
2022-12-03T04:50:28.456Z,0.82
2022-12-03T04:52:55.131Z,0.80
2022-12-03T04:55:21.841Z,0.79
2022-12-03T04:57:48.510Z,0.76
2022-12-03T05:00:15.725Z,0.76
2022-12-03T05:02:42.494Z,0.70
2022-12-03T05:05:10.220Z,0.82
2022-12-03T05:07:37.578Z,0.75
2022-12-03T05:10:05.472Z,0.76
2022-12-03T05:12:32.252Z,0.72
2022-12-03T05:14:59.635Z,0.71
2022-12-03T05:17:26.412Z,0.75
2022-12-03T05:19:53.172Z,0.92
2022-12-03T05:22:19.933Z,0.96
2022-12-03T05:24:46.557Z,0.83
2022-12-03T05:27:13.304Z,1.01
2022-12-03T05:29:39.895Z,0.91
2022-12-03T05:32:06.516Z,1.04
2022-12-03T05:34:33.149Z,0.98
2022-12-03T05:36:59.779Z,1.12
2022-12-03T05:39:26.401Z,1.09
2022-12-03T05:41:53.007Z,1.23
2022-12-03T05:44:20.844Z,1.84
2022-12-03T05:46:47.578Z,1.92
2022-12-03T05:49:14.195Z,1.65
2022-12-03T05:51:40.872Z,1.56
2022-12-03T05:54:07.531Z,1.73
2022-12-03T05:56:34.157Z,1.64
2022-12-03T05:59:01.049Z,1.99
2022-12-03T06:01:27.744Z,2.50
2022-12-03T06:03:54.535Z,2.30
2022-12-03T06:06:21.737Z,2.31
2022-12-03T06:08:48.696Z,3.27
2022-12-03T06:11:15.476Z,3.34
2022-12-03T06:13:42.187Z,3.88
2022-12-03T06:16:08.979Z,4.19
2022-12-03T06:18:35.679Z,4.07
2022-12-03T06:21:02.473Z,3.98
2022-12-03T06:23:29.480Z,2.95
2022-12-03T06:25:56.292Z,2.23
2022-12-03T06:28:23.000Z,2.51
2022-12-03T06:30:49.656Z,1.74
2022-12-03T06:33:16.688Z,2.21
2022-12-03T06:35:43.318Z,1.73
2022-12-03T06:38:09.960Z,1.66
2022-12-03T06:40:36.627Z,1.45
2022-12-03T06:43:03.265Z,1.41
2022-12-03T06:45:29.888Z,1.80
2022-12-03T06:47:56.496Z,2.35
2022-12-03T06:50:23.231Z,2.23
2022-12-03T06:52:49.838Z,2.23
2022-12-03T06:55:17.367Z,2.31
2022-12-03T06:57:44.105Z,2.64
2022-12-03T07:00:11.470Z,2.33
2022-12-03T07:02:38.181Z,1.78
2022-12-03T07:05:05.123Z,2.65
2022-12-03T07:07:32.166Z,2.33
2022-12-03T07:09:59.305Z,2.63
2022-12-03T07:12:26.143Z,2.32
2022-12-03T07:14:53.035Z,2.96
2022-12-03T07:17:19.992Z,2.75
2022-12-03T07:19:46.671Z,2.97
2022-12-03T07:22:13.518Z,2.47
2022-12-03T07:24:40.198Z,2.28
2022-12-03T07:27:06.805Z,1.87
2022-12-03T07:29:33.458Z,1.79
2022-12-03T07:32:00.142Z,2.06
2022-12-03T07:34:27.084Z,2.12
2022-12-03T07:36:53.855Z,3.04
2022-12-03T07:39:20.657Z,2.74
2022-12-03T07:41:47.320Z,3.13
2022-12-03T07:44:14.683Z,2.72
2022-12-03T07:46:42.148Z,2.07
2022-12-03T07:49:08.964Z,2.44
2022-12-03T07:51:35.809Z,2.35
2022-12-03T07:54:02.479Z,2.38
2022-12-03T07:56:29.258Z,2.32
2022-12-03T07:58:56.166Z,2.49
2022-12-03T08:01:23.013Z,2.56
2022-12-03T08:03:49.758Z,3.13
2022-12-03T08:06:16.411Z,2.72
2022-12-03T08:08:43.028Z,3.54
2022-12-03T08:11:13.563Z,3.93
2022-12-03T08:13:40.573Z,3.92
2022-12-03T08:16:20.131Z,3.87
2022-12-03T08:18:49.002Z,3.68
2022-12-03T08:21:18.791Z,3.11
2022-12-03T08:23:45.735Z,2.81
2022-12-03T08:26:17.640Z,3.11
2022-12-03T08:28:44.247Z,2.98
2022-12-03T08:31:30.910Z,3.05
2022-12-03T08:34:13.083Z,2.71
2022-12-03T08:36:39.720Z,2.39
2022-12-03T08:39:32.355Z,2.17
2022-12-03T08:42:21.984Z,2.27
2022-12-03T08:44:48.664Z,2.31
2022-12-03T08:47:24.096Z,2.48
2022-12-03T08:50:33.339Z,3.30
2022-12-03T08:53:21.796Z,3.72
2022-12-03T08:55:52.860Z,3.32
2022-12-03T08:58:38.799Z,2.91
2022-12-03T09:01:08.501Z,3.35
2022-12-03T09:03:39.181Z,3.68
2022-12-03T09:06:06.109Z,3.92
2022-12-03T09:08:32.974Z,4.21
2022-12-03T09:10:59.716Z,4.80
2022-12-03T09:13:26.486Z,4.34
2022-12-03T09:15:55.305Z,4.76
2022-12-03T09:18:25.162Z,4.77
2022-12-03T09:20:51.892Z,4.22
2022-12-03T09:23:18.655Z,3.68
2022-12-03T09:25:45.407Z,3.42
2022-12-03T09:28:12.272Z,3.43
2022-12-03T09:30:38.991Z,3.83
2022-12-03T09:33:05.816Z,4.88
2022-12-03T09:35:32.595Z,4.10
2022-12-03T09:37:59.296Z,3.50
2022-12-03T09:40:26.006Z,4.25
2022-12-03T09:42:52.837Z,4.76
2022-12-03T09:45:19.680Z,3.79
2022-12-03T09:47:49.418Z,3.34
2022-12-03T09:50:21.808Z,3.43
2022-12-03T09:52:50.806Z,3.44
2022-12-03T09:55:22.876Z,2.84
2022-12-03T09:57:51.101Z,3.14
2022-12-03T10:00:21.696Z,4.01
2022-12-03T10:02:51.347Z,3.93
2022-12-03T10:05:22.611Z,4.20
2022-12-03T10:07:53.270Z,4.10
2022-12-03T10:10:22.983Z,4.64
2022-12-03T10:12:54.852Z,3.50
2022-12-03T10:15:23.441Z,3.43
2022-12-03T10:17:53.284Z,3.22
2022-12-03T10:20:23.670Z,4.02
2022-12-03T10:22:50.712Z,4.58
2022-12-03T10:25:22.895Z,4.07
2022-12-03T10:28:02.415Z,5.32
2022-12-03T10:30:29.659Z,5.37
2022-12-03T10:32:58.643Z,4.84
2022-12-03T10:35:40.611Z,5.28
2022-12-03T10:38:22.587Z,5.03
2022-12-03T10:40:50.171Z,4.34
2022-12-03T10:43:20.235Z,4.37
2022-12-03T10:45:49.510Z,5.23
2022-12-03T10:48:25.053Z,5.53
2022-12-03T10:51:21.304Z,5.18
2022-12-03T10:53:50.866Z,5.85
2022-12-03T10:56:27.370Z,5.96
2022-12-03T10:58:55.358Z,5.08
2022-12-03T11:01:25.773Z,4.60
2022-12-03T11:03:53.988Z,4.62
2022-12-03T11:06:23.095Z,4.82
2022-12-03T11:08:57.623Z,3.97
2022-12-03T11:11:31.220Z,4.52
2022-12-03T11:14:03.838Z,4.40
2022-12-03T11:16:39.295Z,4.45
2022-12-03T11:19:41.950Z,4.24
2022-12-03T11:22:08.735Z,5.43
2022-12-03T11:24:40.421Z,5.90
2022-12-03T11:27:17.574Z,5.56
2022-12-03T11:29:59.084Z,5.09
2022-12-03T11:32:37.769Z,5.31
2022-12-03T11:35:15.367Z,5.35
2022-12-03T11:37:42.341Z,5.04
2022-12-03T11:40:17.761Z,4.94
2022-12-03T11:42:48.149Z,5.48
2022-12-03T11:45:22.297Z,5.66
2022-12-03T11:47:58.775Z,5.77
2022-12-03T11:51:04.134Z,5.64
2022-12-03T11:53:31.544Z,6.36
2022-12-03T11:56:04.937Z,5.29
2022-12-03T11:58:35.099Z,5.44
2022-12-03T12:01:04.902Z,5.26
2022-12-03T12:03:34.497Z,5.84
2022-12-03T12:06:10.393Z,5.31
2022-12-03T12:08:40.745Z,5.02
2022-12-03T12:11:26.344Z,4.53
2022-12-03T12:13:58.886Z,4.81
2022-12-03T12:16:44.333Z,4.45
2022-12-03T12:19:35.370Z,5.51
2022-12-03T12:22:23.835Z,4.91
2022-12-03T12:24:52.106Z,4.99
2022-12-03T12:27:32.288Z,5.32
2022-12-03T12:30:13.413Z,4.15
2022-12-03T12:33:00.853Z,3.66
2022-12-03T12:35:29.948Z,3.59
2022-12-03T12:38:06.941Z,4.06
2022-12-03T12:40:38.947Z,3.95
2022-12-03T12:43:26.510Z,3.95
2022-12-03T12:45:56.101Z,3.39
2022-12-03T12:48:36.314Z,3.90
2022-12-03T12:51:10.870Z,3.88
2022-12-03T12:53:40.051Z,3.96
2022-12-03T12:56:11.284Z,3.89
2022-12-03T12:58:38.098Z,3.21
2022-12-03T13:01:11.451Z,3.35
2022-12-03T13:03:39.711Z,3.31
2022-12-03T13:06:10.675Z,3.18
2022-12-03T13:08:44.867Z,3.82
2022-12-03T13:11:37.931Z,4.60
2022-12-03T13:14:19.171Z,4.67
2022-12-03T13:16:47.831Z,4.55
2022-12-03T13:19:25.207Z,3.90
2022-12-03T13:21:54.423Z,4.51
2022-12-03T13:24:38.612Z,4.03
2022-12-03T13:27:18.196Z,4.02
2022-12-03T13:29:49.631Z,3.90
2022-12-03T13:32:21.489Z,3.92
2022-12-03T13:34:49.029Z,3.24
2022-12-03T13:37:26.832Z,3.21
2022-12-03T13:39:56.956Z,2.57
2022-12-03T13:42:35.362Z,2.99
2022-12-03T13:45:05.188Z,2.56
2022-12-03T13:47:32.372Z,2.37
2022-12-03T13:50:10.574Z,2.85
2022-12-03T13:52:37.535Z,2.92
2022-12-03T13:55:12.914Z,3.06
2022-12-03T13:57:39.619Z,2.82
2022-12-03T14:00:06.903Z,2.59
2022-12-03T14:02:33.620Z,3.06
2022-12-03T14:05:00.948Z,2.55
2022-12-03T14:07:27.923Z,2.69
2022-12-03T14:09:54.992Z,2.77
2022-12-03T14:12:21.897Z,2.94
2022-12-03T14:14:48.712Z,3.02
2022-12-03T14:17:15.667Z,2.84
2022-12-03T14:19:42.306Z,2.99
2022-12-03T14:22:09.136Z,3.21
2022-12-03T14:24:37.016Z,3.43
2022-12-03T14:27:03.969Z,2.78
2022-12-03T14:29:30.766Z,2.74
2022-12-03T14:31:57.653Z,2.73
2022-12-03T14:34:24.409Z,2.64
2022-12-03T14:36:51.115Z,2.43
2022-12-03T14:39:17.780Z,2.40
2022-12-03T14:41:44.506Z,2.23
2022-12-03T14:44:11.166Z,2.59
2022-12-03T14:46:37.774Z,2.27
2022-12-03T14:49:04.488Z,2.28
2022-12-03T14:51:31.139Z,2.20
2022-12-03T14:53:57.857Z,2.35
2022-12-03T14:56:24.617Z,2.41
2022-12-03T14:58:51.307Z,2.27
2022-12-03T15:01:18.027Z,2.38
2022-12-03T15:03:44.882Z,2.28
2022-12-03T15:06:12.276Z,2.27
2022-12-03T15:08:38.970Z,2.37
2022-12-03T15:11:06.415Z,2.13
2022-12-03T15:13:33.119Z,2.43
2022-12-03T15:16:02.213Z,2.23
2022-12-03T15:18:29.295Z,2.34
2022-12-03T15:20:56.403Z,2.26
2022-12-03T15:23:23.048Z,2.29
2022-12-03T15:25:49.721Z,2.28
2022-12-03T15:28:16.330Z,2.38
2022-12-03T15:30:42.991Z,2.21
2022-12-03T15:33:09.915Z,2.05
2022-12-03T15:35:36.608Z,1.85
2022-12-03T15:38:03.368Z,2.08
2022-12-03T15:40:30.003Z,2.22
2022-12-03T15:42:56.613Z,2.02
2022-12-03T15:45:23.867Z,1.95
2022-12-03T15:47:50.879Z,1.90
2022-12-03T15:50:17.834Z,1.98
2022-12-03T15:52:44.706Z,1.79
2022-12-03T15:55:11.526Z,1.71
2022-12-03T15:57:38.208Z,1.59
2022-12-03T16:00:06.185Z,1.40
2022-12-03T16:02:33.221Z,1.61
2022-12-03T16:05:02.152Z,2.06
2022-12-03T16:07:31.201Z,2.05
2022-12-03T16:09:58.193Z,1.72
2022-12-03T16:12:24.979Z,2.02
2022-12-03T16:14:51.890Z,1.67
2022-12-03T16:17:18.598Z,1.61
2022-12-03T16:19:45.540Z,1.84
2022-12-03T16:22:12.841Z,1.80
2022-12-03T16:24:39.511Z,1.84
2022-12-03T16:27:06.442Z,1.90
2022-12-03T16:29:33.237Z,2.08
2022-12-03T16:31:59.871Z,1.63
2022-12-03T16:34:26.929Z,1.93
2022-12-03T16:36:53.596Z,1.62
2022-12-03T16:39:20.290Z,1.65
2022-12-03T16:41:47.168Z,1.60
2022-12-03T16:44:13.800Z,1.43
2022-12-03T16:46:40.726Z,1.50
2022-12-03T16:49:07.588Z,1.73
2022-12-03T16:51:34.208Z,1.48
2022-12-03T16:54:00.884Z,1.41
2022-12-03T16:56:27.526Z,1.47
2022-12-03T16:58:54.275Z,1.52
2022-12-03T17:01:21.108Z,1.72
2022-12-03T17:03:47.838Z,1.37
2022-12-03T17:06:14.802Z,1.58
2022-12-03T17:08:47.375Z,1.45
2022-12-03T17:11:15.991Z,1.69
2022-12-03T17:13:42.671Z,1.41
2022-12-03T17:16:09.401Z,1.33
2022-12-03T17:18:36.124Z,1.38
2022-12-03T17:21:03.098Z,1.51
2022-12-03T17:23:30.304Z,1.40
2022-12-03T17:25:57.015Z,1.61
2022-12-03T17:28:23.853Z,1.52
2022-12-03T17:30:50.604Z,1.95
2022-12-03T17:33:17.311Z,2.00
2022-12-03T17:35:43.932Z,1.56
2022-12-03T17:38:10.628Z,1.55
2022-12-03T17:40:37.259Z,1.89
2022-12-03T17:43:04.104Z,1.66
2022-12-03T17:45:30.996Z,1.58
2022-12-03T17:47:57.623Z,1.90
2022-12-03T17:50:24.281Z,2.48
2022-12-03T17:52:50.918Z,2.03
2022-12-03T17:55:26.447Z,2.10
2022-12-03T17:57:54.749Z,2.08
2022-12-03T18:00:21.476Z,1.96
2022-12-03T18:02:50.531Z,2.01
2022-12-03T18:05:17.747Z,1.78
2022-12-03T18:07:44.533Z,1.88
2022-12-03T18:10:11.483Z,1.75
2022-12-03T18:12:38.213Z,1.61
2022-12-03T18:15:05.210Z,1.99
2022-12-03T18:17:31.955Z,2.02
2022-12-03T18:19:58.794Z,1.61
2022-12-03T18:22:26.528Z,1.60
2022-12-03T18:24:53.635Z,1.78
2022-12-03T18:27:21.565Z,1.89
2022-12-03T18:29:48.563Z,1.88
2022-12-03T18:32:28.340Z,1.80
2022-12-03T18:34:56.800Z,1.82
2022-12-03T18:37:27.710Z,1.54
2022-12-03T18:39:57.234Z,1.40
2022-12-03T18:42:25.124Z,1.79
2022-12-03T18:44:54.293Z,1.56
2022-12-03T18:47:27.397Z,1.48
2022-12-03T18:49:55.742Z,1.32
2022-12-03T18:52:23.894Z,1.59
2022-12-03T18:54:50.803Z,1.43
2022-12-03T18:57:17.461Z,1.64
2022-12-03T18:59:44.382Z,1.54
2022-12-03T19:02:45.929Z,1.51
2022-12-03T19:05:04.969Z,1.43
2022-12-03T19:07:31.722Z,1.54
2022-12-03T19:09:58.494Z,1.73
2022-12-03T19:12:25.274Z,1.87
2022-12-03T19:14:51.898Z,1.65
2022-12-03T19:17:18.599Z,1.79
2022-12-03T19:19:45.288Z,1.82
2022-12-03T19:22:11.900Z,1.63
2022-12-03T19:24:38.608Z,1.86
2022-12-03T19:27:05.213Z,1.79
2022-12-03T19:29:31.851Z,1.59
2022-12-03T19:32:01.138Z,1.48
2022-12-03T19:34:28.111Z,1.51
2022-12-03T19:36:56.764Z,1.74
2022-12-03T19:39:23.795Z,1.71
2022-12-03T19:41:50.646Z,1.79
2022-12-03T19:44:18.963Z,1.83
2022-12-03T19:46:45.668Z,1.57
2022-12-03T19:49:12.304Z,1.71
2022-12-03T19:51:39.060Z,1.72
2022-12-03T19:54:08.066Z,1.68
2022-12-03T19:56:35.090Z,1.78
2022-12-03T19:59:02.068Z,1.69
2022-12-03T20:01:32.381Z,1.68
2022-12-03T20:04:01.320Z,1.60
2022-12-03T20:06:31.727Z,1.62
2022-12-03T20:09:05.649Z,1.76
2022-12-03T20:11:34.321Z,1.57
2022-12-03T20:14:08.139Z,1.83
2022-12-03T20:16:35.761Z,1.71
2022-12-03T20:19:06.392Z,1.51
2022-12-03T20:21:35.950Z,1.58
2022-12-03T20:24:03.899Z,1.37
2022-12-03T20:26:30.723Z,1.56
2022-12-03T20:28:57.966Z,1.58
2022-12-03T20:31:30.018Z,1.40
2022-12-03T20:33:59.330Z,1.52
2022-12-03T20:36:27.648Z,1.51
2022-12-03T20:38:55.988Z,1.51
2022-12-03T20:41:22.920Z,1.43
2022-12-03T20:43:50.609Z,1.57
2022-12-03T20:46:26.059Z,1.40
2022-12-03T20:48:53.468Z,1.71
2022-12-03T20:51:22.819Z,1.51
2022-12-03T20:53:50.022Z,1.61
2022-12-03T20:56:23.403Z,1.54
2022-12-03T20:58:50.906Z,1.76
2022-12-03T21:01:21.142Z,1.75
2022-12-03T21:03:50.511Z,1.67
2022-12-03T21:06:18.050Z,1.76
2022-12-03T21:08:45.122Z,1.54
2022-12-03T21:11:20.484Z,1.83
2022-12-03T21:13:47.757Z,1.81
2022-12-03T21:16:17.821Z,1.96
2022-12-03T21:18:45.714Z,1.90
2022-12-03T21:21:16.864Z,2.07
2022-12-03T21:23:44.628Z,1.98
2022-12-03T21:26:20.649Z,1.90
2022-12-03T21:28:50.491Z,2.29
2022-12-03T21:31:21.842Z,2.15
2022-12-03T21:33:48.757Z,1.85
2022-12-03T21:36:16.439Z,2.03
2022-12-03T21:38:44.746Z,1.89
2022-12-03T21:41:12.750Z,2.10
2022-12-03T21:43:39.411Z,1.86
2022-12-03T21:47:10.891Z,2.11
2022-12-03T21:48:55.061Z,2.17
2022-12-03T21:51:21.945Z,2.08
2022-12-03T21:53:48.563Z,2.39
2022-12-03T21:56:18.668Z,2.53
2022-12-03T21:58:46.497Z,2.05
2022-12-03T22:01:19.796Z,2.01
2022-12-03T22:03:47.200Z,2.20
2022-12-03T22:06:14.596Z,2.21
2022-12-03T22:08:41.476Z,2.01
2022-12-03T22:11:17.298Z,2.19
2022-12-03T22:13:44.300Z,2.21
2022-12-03T22:16:16.578Z,2.22
2022-12-03T22:18:43.975Z,2.33
2022-12-03T22:21:17.572Z,2.29
2022-12-03T22:23:44.859Z,2.50
2022-12-03T22:26:14.422Z,2.21
2022-12-03T22:28:46.128Z,2.25
2022-12-03T22:31:13.789Z,1.94
2022-12-03T22:33:41.044Z,1.87
2022-12-03T22:36:18.266Z,2.46
2022-12-03T22:38:46.534Z,2.26
2022-12-03T22:41:14.023Z,2.18
2022-12-03T22:43:40.704Z,2.47
2022-12-03T22:46:08.993Z,2.48
2022-12-03T22:48:36.575Z,2.37
2022-12-03T22:51:03.443Z,1.85
2022-12-03T22:53:30.242Z,1.83
2022-12-03T22:55:59.352Z,2.03
2022-12-03T22:58:28.289Z,2.14
2022-12-03T23:01:01.222Z,2.00
2022-12-03T23:03:30.334Z,1.82
2022-12-03T23:05:57.017Z,1.68
2022-12-03T23:08:23.854Z,1.68
2022-12-03T23:10:52.483Z,1.64
2022-12-03T23:13:20.418Z,1.68
2022-12-03T23:15:51.807Z,2.25
2022-12-03T23:18:20.155Z,2.55
2022-12-03T23:20:55.131Z,2.39
2022-12-03T23:23:24.132Z,3.09
2022-12-03T23:26:02.954Z,2.54
2022-12-03T23:28:32.259Z,2.93
2022-12-03T23:30:59.831Z,2.61
2022-12-03T23:33:27.272Z,2.36
2022-12-03T23:35:54.050Z,2.41
2022-12-03T23:38:21.354Z,2.24
2022-12-03T23:40:48.530Z,1.95
2022-12-03T23:43:15.857Z,1.85
2022-12-03T23:45:42.491Z,2.23
2022-12-03T23:48:09.176Z,2.08
2022-12-03T23:50:39.183Z,2.01
2022-12-03T23:53:05.868Z,1.90
2022-12-03T23:55:32.480Z,1.83
2022-12-03T23:57:59.120Z,1.87
